createdAt,value
2023-02-02T00:01:01.106Z,101629.41
2023-02-02T00:03:27.471Z,101624.06
2023-02-02T00:05:54.238Z,101642.50
2023-02-02T00:08:21.860Z,101655.75
2023-02-02T00:10:50.400Z,101651.34
2023-02-02T00:13:17.472Z,101662.75
2023-02-02T00:15:44.041Z,101634.44
2023-02-02T00:18:10.431Z,101642.19
2023-02-02T00:20:36.868Z,101648.53
2023-02-02T00:23:04.176Z,101640.69
2023-02-02T00:25:31.468Z,101656.59
2023-02-02T00:27:58.008Z,101632.69
2023-02-02T00:30:24.551Z,101630.13
2023-02-02T00:32:52.946Z,101635.34
2023-02-02T00:35:20.242Z,101635.34
2023-02-02T00:37:46.653Z,101638.91
2023-02-02T00:40:13.182Z,101634.38
2023-02-02T00:42:39.616Z,101631.72
2023-02-02T00:45:18.889Z,101628.94
2023-02-02T00:47:48.201Z,101626.28
2023-02-02T00:50:17.606Z,101640.00
2023-02-02T00:52:43.964Z,101646.00
2023-02-02T00:55:12.176Z,101639.59
2023-02-02T00:57:38.965Z,101633.25
2023-02-02T01:00:07.550Z,101631.16
2023-02-02T01:02:35.300Z,101625.00
2023-02-02T01:05:02.154Z,101623.94
2023-02-02T01:07:28.973Z,101637.03
2023-02-02T01:09:56.840Z,101634.16
2023-02-02T01:12:23.422Z,101624.25
2023-02-02T01:14:49.897Z,101629.13
2023-02-02T01:17:16.358Z,101631.72
2023-02-02T01:19:42.781Z,101633.31
2023-02-02T01:22:09.288Z,101631.19
2023-02-02T01:24:35.681Z,101624.03
2023-02-02T01:27:02.094Z,101628.41
2023-02-02T01:29:28.503Z,101632.63
2023-02-02T01:31:55.315Z,101634.41
2023-02-02T01:34:21.876Z,101640.72
2023-02-02T01:36:48.528Z,101636.16
2023-02-02T01:39:14.912Z,101646.69
2023-02-02T01:41:42.122Z,101645.66
2023-02-02T01:44:46.005Z,101649.09
2023-02-02T01:47:12.999Z,101644.72
2023-02-02T01:49:41.087Z,101642.91
2023-02-02T01:52:10.075Z,101648.16
2023-02-02T01:54:41.818Z,101655.19
2023-02-02T01:57:28.805Z,101655.13
2023-02-02T01:59:59.173Z,101663.03
2023-02-02T02:02:27.693Z,101670.69
2023-02-02T02:04:55.354Z,101671.63
2023-02-02T02:07:23.394Z,101669.69
2023-02-02T02:09:50.119Z,101675.00
2023-02-02T02:12:16.828Z,101676.75
2023-02-02T02:15:05.023Z,101672.97
2023-02-02T02:18:14.444Z,101659.72
2023-02-02T02:21:17.112Z,101656.22
2023-02-02T02:25:00.186Z,101650.88
2023-02-02T02:27:44.838Z,101657.91
2023-02-02T02:30:46.803Z,101644.31
2023-02-02T02:33:39.990Z,101647.13
2023-02-02T02:36:44.995Z,101647.09
2023-02-02T02:39:22.306Z,101658.75
2023-02-02T02:41:55.856Z,101655.16
2023-02-02T02:44:22.682Z,101664.84
2023-02-02T02:46:50.296Z,101649.66
2023-02-02T02:49:17.868Z,101655.97
2023-02-02T02:51:50.489Z,101663.94
2023-02-02T02:54:33.963Z,101655.88
2023-02-02T02:57:34.419Z,101661.38
2023-02-02T03:00:07.632Z,101661.25
2023-02-02T03:03:05.219Z,101655.88
2023-02-02T03:05:54.402Z,101667.59
2023-02-02T03:08:29.182Z,101658.88
2023-02-02T03:10:57.730Z,101661.53
2023-02-02T03:13:25.884Z,101652.56
2023-02-02T03:15:52.663Z,101660.56
2023-02-02T03:18:21.694Z,101658.72
2023-02-02T03:20:48.098Z,101669.34
2023-02-02T03:23:14.746Z,101664.03
2023-02-02T03:25:41.496Z,101657.91
2023-02-02T03:28:07.873Z,101655.41
2023-02-02T03:30:34.537Z,101658.16
2023-02-02T03:33:01.029Z,101657.25
2023-02-02T03:35:27.488Z,101655.59
2023-02-02T03:37:53.959Z,101653.06
2023-02-02T03:40:20.379Z,101657.44
2023-02-02T03:42:46.799Z,101654.03
2023-02-02T03:45:13.314Z,101655.75
2023-02-02T03:47:39.678Z,101653.88
2023-02-02T03:50:09.760Z,101654.72
2023-02-02T03:52:36.281Z,101653.81
2023-02-02T03:55:02.669Z,101657.44
2023-02-02T03:57:29.037Z,101655.75
2023-02-02T03:59:55.410Z,101655.59
2023-02-02T04:02:21.960Z,101653.91
2023-02-02T04:04:48.379Z,101655.88
2023-02-02T04:07:14.926Z,101661.19
2023-02-02T04:09:41.329Z,101663.00
2023-02-02T04:12:07.710Z,101652.94
2023-02-02T04:14:34.088Z,101655.66
2023-02-02T04:17:00.485Z,101656.66
2023-02-02T04:19:26.881Z,101652.09
2023-02-02T04:21:53.876Z,101658.31
2023-02-02T04:24:20.264Z,101664.53
2023-02-02T04:26:46.638Z,101668.13
2023-02-02T04:29:13.214Z,101660.28
2023-02-02T04:31:39.576Z,101665.53
2023-02-02T04:34:05.978Z,101667.16
2023-02-02T04:36:32.437Z,101668.84
2023-02-02T04:38:58.835Z,101669.78
2023-02-02T04:41:25.359Z,101658.19
2023-02-02T04:43:51.976Z,101653.75
2023-02-02T04:46:18.669Z,101669.66
2023-02-02T04:48:45.024Z,101666.91
2023-02-02T04:51:14.119Z,101660.69
2023-02-02T04:53:41.722Z,101658.16
2023-02-02T04:56:13.792Z,101662.41
2023-02-02T04:58:40.735Z,101661.41
2023-02-02T05:01:12.897Z,101661.38
2023-02-02T05:03:39.336Z,101647.94
2023-02-02T05:06:06.525Z,101645.94
2023-02-02T05:08:33.190Z,101655.75
2023-02-02T05:10:59.551Z,101656.41
2023-02-02T05:13:26.133Z,101656.25
2023-02-02T05:15:53.879Z,101650.69
2023-02-02T05:18:20.250Z,101656.81
2023-02-02T05:20:46.628Z,101656.59
2023-02-02T05:23:12.957Z,101649.47
2023-02-02T05:25:39.304Z,101659.13
2023-02-02T05:28:05.671Z,101643.94
2023-02-02T05:30:33.580Z,101651.72
2023-02-02T05:33:00.105Z,101652.50
2023-02-02T05:35:26.762Z,101650.75
2023-02-02T05:37:53.347Z,101655.94
2023-02-02T05:40:19.856Z,101653.09
2023-02-02T05:42:48.457Z,101653.81
2023-02-02T05:45:15.017Z,101653.78
2023-02-02T05:47:41.402Z,101651.94
2023-02-02T05:50:09.372Z,101654.53
2023-02-02T05:52:37.236Z,101661.63
2023-02-02T05:55:04.459Z,101663.44
2023-02-02T05:57:30.835Z,101672.22
2023-02-02T05:59:57.194Z,101665.22
2023-02-02T06:02:23.564Z,101651.78
2023-02-02T06:04:50.076Z,101657.25
2023-02-02T06:07:16.427Z,101657.94
2023-02-02T06:09:42.767Z,101673.03
2023-02-02T06:12:09.708Z,101662.31
2023-02-02T06:14:36.052Z,101675.75
2023-02-02T06:17:02.459Z,101668.53
2023-02-02T06:19:28.828Z,101684.53
2023-02-02T06:21:55.479Z,101671.22
2023-02-02T06:24:21.825Z,101675.19
2023-02-02T06:26:48.241Z,101670.56
2023-02-02T06:29:14.855Z,101682.06
2023-02-02T06:31:41.391Z,101677.69
2023-02-02T06:34:10.258Z,101672.28
2023-02-02T06:36:36.634Z,101681.38
2023-02-02T06:39:04.720Z,101683.09
2023-02-02T06:41:31.577Z,101693.56
2023-02-02T06:43:57.934Z,101687.44
2023-02-02T06:46:24.285Z,101694.72
2023-02-02T06:48:50.696Z,101705.28
2023-02-02T06:51:17.074Z,101702.44
2023-02-02T06:53:43.401Z,101698.16
2023-02-02T06:56:12.920Z,101706.00
2023-02-02T06:58:39.463Z,101703.34
2023-02-02T07:01:08.822Z,101702.63
2023-02-02T07:03:36.114Z,101702.50
2023-02-02T07:06:16.768Z,101707.81
2023-02-02T07:08:43.162Z,101716.69
2023-02-02T07:11:15.963Z,101701.63
2023-02-02T07:13:44.728Z,101713.25
2023-02-02T07:16:12.898Z,101706.94
2023-02-02T07:18:40.084Z,101704.22
2023-02-02T07:21:06.816Z,101715.75
2023-02-02T07:23:34.175Z,101719.28
2023-02-02T07:26:08.591Z,101724.47
2023-02-02T07:28:35.580Z,101725.28
2023-02-02T07:31:16.181Z,101718.19
2023-02-02T07:33:44.011Z,101726.94
2023-02-02T07:36:11.467Z,101734.06
2023-02-02T07:38:38.143Z,101724.28
2023-02-02T07:41:04.974Z,101730.53
2023-02-02T07:43:31.559Z,101734.06
2023-02-02T07:46:02.704Z,101735.91
2023-02-02T07:48:30.609Z,101740.25
2023-02-02T07:51:01.193Z,101738.59
2023-02-02T07:53:28.677Z,101737.94
2023-02-02T07:56:15.501Z,101739.56
2023-02-02T07:58:43.046Z,101743.22
2023-02-02T08:01:11.639Z,101744.09
2023-02-02T08:03:38.898Z,101751.25
2023-02-02T08:06:35.998Z,101752.06
2023-02-02T08:09:05.596Z,101756.34
2023-02-02T08:11:31.967Z,101757.38
2023-02-02T08:14:00.140Z,101763.69
2023-02-02T08:16:28.368Z,101769.94
2023-02-02T08:18:55.363Z,101775.22
2023-02-02T08:21:22.055Z,101772.59
2023-02-02T08:23:48.785Z,101774.41
2023-02-02T08:26:18.146Z,101781.38
2023-02-02T08:28:47.362Z,101781.38
2023-02-02T08:31:21.367Z,101778.00
2023-02-02T08:33:48.486Z,101781.56
2023-02-02T08:36:16.962Z,101780.56
2023-02-02T08:38:43.796Z,101772.66
2023-02-02T08:41:13.468Z,101784.22
2023-02-02T08:43:40.194Z,101784.13
2023-02-02T08:46:08.597Z,101780.66
2023-02-02T08:48:36.275Z,101790.34
2023-02-02T08:51:04.147Z,101792.22
2023-02-02T08:53:30.994Z,101796.63
2023-02-02T08:56:02.107Z,101802.00
2023-02-02T08:58:28.606Z,101809.94
2023-02-02T09:00:55.089Z,101812.47
2023-02-02T09:03:21.469Z,101812.63
2023-02-02T09:05:47.851Z,101814.31
2023-02-02T09:08:14.259Z,101818.78
2023-02-02T09:10:40.611Z,101827.56
2023-02-02T09:13:06.980Z,101838.22
2023-02-02T09:15:33.400Z,101841.88
2023-02-02T09:17:59.753Z,101844.56
2023-02-02T09:20:26.198Z,101845.50
2023-02-02T09:22:55.471Z,101846.31
2023-02-02T09:25:22.110Z,101850.88
2023-02-02T09:27:48.617Z,101857.06
2023-02-02T09:30:15.155Z,101852.56
2023-02-02T09:32:41.565Z,101857.00
2023-02-02T09:35:08.352Z,101862.34
2023-02-02T09:37:35.053Z,101865.81
2023-02-02T09:40:01.565Z,101866.72
2023-02-02T09:42:40.300Z,101873.81
2023-02-02T09:45:48.868Z,101877.31
2023-02-02T09:48:40.285Z,101892.34
2023-02-02T09:51:13.841Z,101886.94
2023-02-02T09:53:55.254Z,101889.59
2023-02-02T09:56:40.982Z,101891.56
2023-02-02T09:59:20.519Z,101907.25
2023-02-02T10:01:51.946Z,101902.91
2023-02-02T10:04:36.183Z,101909.97
2023-02-02T10:07:35.414Z,101911.59
2023-02-02T10:10:18.018Z,101915.13
2023-02-02T10:12:59.175Z,101915.16
2023-02-02T10:15:34.989Z,101916.97
2023-02-02T10:18:11.523Z,101917.81
2023-02-02T10:20:51.165Z,101916.16
2023-02-02T10:23:28.133Z,101926.00
2023-02-02T10:26:08.509Z,101929.53
2023-02-02T10:28:49.329Z,101934.69
2023-02-02T10:31:41.687Z,101929.44
2023-02-02T10:34:24.447Z,101935.56
2023-02-02T10:36:56.679Z,101946.06
2023-02-02T10:39:41.330Z,101945.25
2023-02-02T10:42:30.004Z,101938.91
2023-02-02T10:45:04.396Z,101930.00
2023-02-02T10:47:33.595Z,101932.56
2023-02-02T10:50:15.627Z,101937.81
2023-02-02T10:52:56.298Z,101932.44
2023-02-02T10:55:32.732Z,101933.25
2023-02-02T10:58:11.227Z,101929.66
2023-02-02T11:00:55.787Z,101939.31
2023-02-02T11:03:26.724Z,101945.47
2023-02-02T11:06:11.785Z,101937.47
2023-02-02T11:08:41.210Z,101942.81
2023-02-02T11:11:20.927Z,101944.44
2023-02-02T11:13:55.232Z,101948.78
2023-02-02T11:16:28.455Z,101942.50
2023-02-02T11:18:59.831Z,101944.47
2023-02-02T11:21:29.091Z,101946.25
2023-02-02T11:24:02.758Z,101944.44
2023-02-02T11:27:03.056Z,101943.41
2023-02-02T11:29:32.670Z,101938.78
2023-02-02T11:32:18.702Z,101944.16
2023-02-02T11:34:45.045Z,101940.50
2023-02-02T11:37:20.632Z,101943.00
2023-02-02T11:39:47.011Z,101938.66
2023-02-02T11:42:23.886Z,101938.50
2023-02-02T11:44:53.282Z,101941.97
2023-02-02T11:47:25.919Z,101943.81
2023-02-02T11:49:55.354Z,101943.59
2023-02-02T11:52:26.873Z,101939.00
2023-02-02T11:54:58.084Z,101937.03
2023-02-02T11:57:26.290Z,101937.16
2023-02-02T12:00:10.744Z,101933.50
2023-02-02T12:02:37.387Z,101940.50
2023-02-02T12:05:09.755Z,101937.88
2023-02-02T12:07:37.420Z,101939.69
2023-02-02T12:10:36.745Z,101946.78
2023-02-02T12:13:31.660Z,101940.63
2023-02-02T12:16:00.814Z,101940.81
2023-02-02T12:18:53.029Z,101953.09
2023-02-02T12:21:41.281Z,101952.09
2023-02-02T12:24:18.237Z,101941.72
2023-02-02T12:26:54.895Z,101945.84
2023-02-02T12:29:47.543Z,101951.16
2023-02-02T12:32:21.992Z,101953.88
2023-02-02T12:35:14.843Z,101955.69
2023-02-02T12:37:48.606Z,101943.22
2023-02-02T12:40:25.366Z,101955.63
2023-02-02T12:43:06.716Z,101950.22
2023-02-02T12:45:45.831Z,101947.50
2023-02-02T12:48:21.699Z,101954.66
2023-02-02T12:51:12.087Z,101956.44
2023-02-02T12:54:34.478Z,101952.88
2023-02-02T12:56:56.090Z,101949.44
2023-02-02T12:59:47.176Z,101943.22
2023-02-02T13:02:44.556Z,101938.97
2023-02-02T13:05:23.039Z,101939.81
2023-02-02T13:07:58.139Z,101938.88
2023-02-02T13:10:36.860Z,101937.97
2023-02-02T13:13:13.782Z,101948.50
2023-02-02T13:15:47.879Z,101943.22
2023-02-02T13:18:20.983Z,101934.38
2023-02-02T13:20:55.310Z,101940.47
2023-02-02T13:23:27.435Z,101936.91
2023-02-02T13:25:59.730Z,101946.81
2023-02-02T13:28:36.772Z,101945.78
2023-02-02T13:31:09.768Z,101947.69
2023-02-02T13:33:37.918Z,101959.28
2023-02-02T13:36:17.847Z,101949.53
2023-02-02T13:38:45.845Z,101968.13
2023-02-02T13:41:13.413Z,101962.81
2023-02-02T13:43:57.970Z,101962.81
2023-02-02T13:46:34.134Z,101967.28
2023-02-02T13:49:13.146Z,101965.53
2023-02-02T13:51:45.883Z,101973.47
2023-02-02T13:54:33.543Z,101968.19
2023-02-02T13:57:19.339Z,101971.66
2023-02-02T14:00:01.557Z,101974.41
2023-02-02T14:02:42.142Z,101971.78
2023-02-02T14:05:21.847Z,101962.84
2023-02-02T14:07:49.220Z,101962.94
2023-02-02T14:10:25.769Z,101968.13
2023-02-02T14:12:53.410Z,101974.41
2023-02-02T14:15:35.976Z,101964.72
2023-02-02T14:18:02.350Z,101962.00
2023-02-02T14:20:42.402Z,101973.63
2023-02-02T14:23:45.976Z,101975.44
2023-02-02T14:26:12.520Z,101978.97
2023-02-02T14:28:42.517Z,101993.22
2023-02-02T14:31:29.602Z,101983.56
2023-02-02T14:34:26.582Z,101990.03
2023-02-02T14:37:26.215Z,101987.47
2023-02-02T14:40:12.376Z,101985.66
2023-02-02T14:43:27.466Z,101992.78
2023-02-02T14:46:15.450Z,101979.44
2023-02-02T14:49:07.474Z,101990.19
2023-02-02T14:51:45.736Z,101992.78
2023-02-02T14:54:21.588Z,101999.91
2023-02-02T14:56:52.876Z,101995.44
2023-02-02T14:59:24.516Z,102011.44
2023-02-02T15:02:15.232Z,102009.53
2023-02-02T15:04:42.283Z,102009.59
2023-02-02T15:07:23.643Z,102014.91
2023-02-02T15:09:51.741Z,102020.19
2023-02-02T15:12:22.480Z,102017.56
2023-02-02T15:15:10.440Z,102021.06
2023-02-02T15:17:44.291Z,102033.59
2023-02-02T15:20:28.527Z,102021.00
2023-02-02T15:23:00.850Z,102021.75
2023-02-02T15:26:04.811Z,102018.44
2023-02-02T15:28:47.237Z,102024.66
2023-02-02T15:31:27.827Z,102030.78
2023-02-02T15:33:59.640Z,102021.22
2023-02-02T15:36:31.051Z,102024.81
2023-02-02T15:39:19.189Z,102026.44
2023-02-02T15:41:47.588Z,102026.50
2023-02-02T15:44:26.464Z,102033.59
2023-02-02T15:46:54.718Z,102026.50
2023-02-02T15:49:34.176Z,102039.03
2023-02-02T15:52:10.702Z,102036.25
2023-02-02T15:54:39.946Z,102041.00
2023-02-02T15:57:28.423Z,102039.91
2023-02-02T15:59:55.746Z,102037.44
2023-02-02T16:02:38.999Z,102043.63
2023-02-02T16:05:24.564Z,102041.88
2023-02-02T16:08:03.756Z,102039.16
2023-02-02T16:10:31.748Z,102054.31
2023-02-02T16:12:58.504Z,102048.97
2023-02-02T16:15:28.237Z,102061.50
2023-02-02T16:18:03.970Z,102066.72
2023-02-02T16:20:33.891Z,102057.81
2023-02-02T16:23:04.532Z,102064.06
2023-02-02T16:25:36.606Z,102069.44
2023-02-02T16:28:03.928Z,102058.91
2023-02-02T16:30:36.699Z,102065.91
2023-02-02T16:33:40.474Z,102067.59
2023-02-02T16:36:26.651Z,102065.91
2023-02-02T16:38:54.940Z,102065.13
2023-02-02T16:41:36.957Z,102078.34
2023-02-02T16:44:48.634Z,102072.97
2023-02-02T16:47:26.914Z,102081.97
2023-02-02T16:50:08.451Z,102083.78
2023-02-02T16:52:47.933Z,102092.44
2023-02-02T16:55:17.993Z,102098.56
2023-02-02T16:57:46.933Z,102098.69
2023-02-02T17:00:24.904Z,102094.22
2023-02-02T17:03:10.807Z,102103.94
2023-02-02T17:05:51.152Z,102101.25
2023-02-02T17:08:26.650Z,102092.28
2023-02-02T17:11:24.877Z,102096.78
2023-02-02T17:13:52.058Z,102092.97
2023-02-02T17:16:21.067Z,102102.75
2023-02-02T17:18:48.249Z,102102.75
2023-02-02T17:21:18.991Z,102106.34
2023-02-02T17:23:45.798Z,102110.66
2023-02-02T17:26:12.765Z,102112.44
2023-02-02T17:28:41.126Z,102112.56
2023-02-02T17:31:16.079Z,102111.75
2023-02-02T17:33:43.391Z,102117.81
2023-02-02T17:36:13.065Z,102122.41
2023-02-02T17:38:40.062Z,102128.53
2023-02-02T17:41:06.731Z,102125.97
2023-02-02T17:43:33.646Z,102124.28
2023-02-02T17:46:00.336Z,102125.22
2023-02-02T17:48:26.666Z,102119.78
2023-02-02T17:50:53.064Z,102124.34
2023-02-02T17:53:21.579Z,102119.81
2023-02-02T17:55:52.248Z,102121.56
2023-02-02T17:58:18.982Z,102120.75
2023-02-02T18:00:48.051Z,102119.88
2023-02-02T18:03:26.501Z,102119.09
2023-02-02T18:05:52.927Z,102119.94
2023-02-02T18:08:19.687Z,102114.59
2023-02-02T18:10:46.057Z,102130.41
2023-02-02T18:13:17.438Z,102129.59
2023-02-02T18:15:44.079Z,102121.56
2023-02-02T18:18:12.435Z,102119.81
2023-02-02T18:20:43.210Z,102125.97
2023-02-02T18:23:09.980Z,102127.72
2023-02-02T18:25:37.690Z,102118.09
2023-02-02T18:28:04.243Z,102120.63
2023-02-02T18:30:30.687Z,102125.09
2023-02-02T18:32:57.030Z,102119.78
2023-02-02T18:35:23.752Z,102126.91
2023-02-02T18:37:50.878Z,102126.03
2023-02-02T18:40:18.309Z,102120.47
2023-02-02T18:42:44.797Z,102123.28
2023-02-02T18:45:11.575Z,102123.25
2023-02-02T18:47:39.405Z,102127.72
2023-02-02T18:50:07.953Z,102116.91
2023-02-02T18:52:34.811Z,102116.84
2023-02-02T18:55:01.457Z,102113.31
2023-02-02T18:57:30.129Z,102109.66
2023-02-02T18:59:56.480Z,102114.16
2023-02-02T19:02:22.819Z,102112.44
2023-02-02T19:05:07.866Z,102110.66
2023-02-02T19:07:52.641Z,102110.69
2023-02-02T19:10:19.465Z,102106.28
2023-02-02T19:12:55.655Z,102111.34
2023-02-02T19:15:23.047Z,102112.34
2023-02-02T19:17:52.542Z,102116.56
2023-02-02T19:20:25.996Z,102127.34
2023-02-02T19:22:56.245Z,102114.72
2023-02-02T19:25:22.635Z,102128.97
2023-02-02T19:27:48.978Z,102121.69
2023-02-02T19:30:19.719Z,102124.50
2023-02-02T19:32:46.101Z,102124.38
2023-02-02T19:35:19.523Z,102126.03
2023-02-02T19:37:48.330Z,102124.31
2023-02-02T19:40:23.424Z,102122.47
2023-02-02T19:43:01.312Z,102109.84
2023-02-02T19:45:32.941Z,102116.94
2023-02-02T19:48:02.416Z,102120.50
2023-02-02T19:50:36.642Z,102114.19
2023-02-02T19:53:12.092Z,102119.53
2023-02-02T19:55:41.420Z,102112.44
2023-02-02T19:58:35.293Z,102120.25
2023-02-02T20:01:10.159Z,102120.97
2023-02-02T20:03:43.119Z,102120.06
2023-02-02T20:06:17.960Z,102112.97
2023-02-02T20:08:44.406Z,102113.91
2023-02-02T20:11:32.529Z,102105.97
2023-02-02T20:14:00.478Z,102112.00
2023-02-02T20:16:37.746Z,102111.81
2023-02-02T20:19:04.136Z,102111.91
2023-02-02T20:21:38.244Z,102106.59
2023-02-02T20:24:16.766Z,102103.94
2023-02-02T20:26:43.301Z,102109.31
2023-02-02T20:29:36.318Z,102108.56
2023-02-02T20:32:04.911Z,102109.50
2023-02-02T20:34:35.383Z,102116.41
2023-02-02T20:37:26.987Z,102111.25
2023-02-02T20:39:56.415Z,102103.47
2023-02-02T20:42:23.317Z,102107.91
2023-02-02T20:44:50.352Z,102111.63
2023-02-02T20:47:16.743Z,102114.28
2023-02-02T20:49:43.734Z,102099.09
2023-02-02T20:52:17.912Z,102101.56
2023-02-02T20:54:44.284Z,102103.28
2023-02-02T20:57:10.630Z,102104.41
2023-02-02T20:59:37.069Z,102102.56
2023-02-02T21:02:05.163Z,102107.81
2023-02-02T21:04:32.319Z,102109.50
2023-02-02T21:06:59.495Z,102122.72
2023-02-02T21:09:26.492Z,102116.63
2023-02-02T21:11:52.943Z,102126.47
2023-02-02T21:14:19.624Z,102128.91
2023-02-02T21:16:45.975Z,102137.84
2023-02-02T21:19:12.430Z,102152.19
2023-02-02T21:21:38.993Z,102152.03
2023-02-02T21:24:05.813Z,102166.28
2023-02-02T21:26:32.300Z,102167.88
2023-02-02T21:28:59.164Z,102175.91
2023-02-02T21:31:26.443Z,102166.06
2023-02-02T21:33:53.689Z,102158.78
2023-02-02T21:36:44.861Z,102156.97
2023-02-02T21:39:23.209Z,102158.78
2023-02-02T21:41:50.463Z,102162.25
2023-02-02T21:44:19.645Z,102155.00
2023-02-02T21:46:48.759Z,102154.25
2023-02-02T21:49:20.347Z,102147.91
2023-02-02T21:51:46.709Z,102142.66
2023-02-02T21:54:36.955Z,102133.81
2023-02-02T21:57:14.028Z,102125.59
2023-02-02T21:59:42.373Z,102122.97
2023-02-02T22:02:34.710Z,102130.09
2023-02-02T22:05:02.153Z,102134.44
2023-02-02T22:07:28.873Z,102136.19
2023-02-02T22:09:55.546Z,102125.59
2023-02-02T22:12:25.172Z,102128.19
2023-02-02T22:15:00.258Z,102133.50
2023-02-02T22:17:37.523Z,102134.41
2023-02-02T22:20:17.277Z,102131.75
2023-02-02T22:22:46.570Z,102129.94
2023-02-02T22:25:15.629Z,102128.09
2023-02-02T22:28:01.315Z,102131.56
2023-02-02T22:30:49.098Z,102134.16
2023-02-02T22:33:16.119Z,102136.00
2023-02-02T22:35:43.008Z,102130.69
2023-02-02T22:38:10.563Z,102127.03
2023-02-02T22:40:37.822Z,102133.19
2023-02-02T22:43:06.237Z,102138.59
2023-02-02T22:45:32.676Z,102126.97
2023-02-02T22:47:59.330Z,102112.91
2023-02-02T22:50:28.518Z,102121.66
2023-02-02T22:52:55.680Z,102122.47
2023-02-02T22:55:22.742Z,102131.31
2023-02-02T22:57:49.209Z,102113.44
2023-02-02T23:00:30.615Z,102110.63
2023-02-02T23:02:57.508Z,102110.69
2023-02-02T23:05:25.559Z,102103.53
2023-02-02T23:07:53.499Z,102109.59
2023-02-02T23:10:22.799Z,102111.34
2023-02-02T23:12:49.677Z,102115.72
2023-02-02T23:15:16.867Z,102124.63
2023-02-02T23:17:43.231Z,102113.81
2023-02-02T23:20:13.200Z,102112.06
2023-02-02T23:22:39.560Z,102130.69
2023-02-02T23:25:06.380Z,102114.72
2023-02-02T23:27:32.993Z,102118.13
2023-02-02T23:29:59.451Z,102108.38
2023-02-02T23:32:25.799Z,102097.88
2023-02-02T23:34:52.144Z,102086.09
2023-02-02T23:37:18.557Z,102087.88
2023-02-02T23:39:45.015Z,102085.13
2023-02-02T23:42:11.319Z,102083.25
2023-02-02T23:44:37.669Z,102072.50
2023-02-02T23:47:05.010Z,102067.19
2023-02-02T23:49:32.715Z,102072.38
2023-02-02T23:51:59.647Z,102066.19
2023-02-02T23:54:27.398Z,102058.13
2023-02-02T23:56:53.825Z,102044.84
2023-02-02T23:59:20.177Z,102033.34
